createdAt,value
2019-03-17T00:02:01.111Z,73.40
2019-03-17T00:04:31.590Z,73.00
2019-03-17T00:07:01.638Z,72.00
2019-03-17T00:09:31.328Z,71.40
2019-03-17T00:12:05.917Z,71.80
2019-03-17T00:14:35.226Z,71.10
2019-03-17T00:17:04.553Z,70.30
2019-03-17T00:19:33.904Z,70.90
2019-03-17T00:22:03.556Z,70.80
2019-03-17T00:24:32.944Z,70.50
2019-03-17T00:27:02.588Z,70.90
2019-03-17T00:29:31.869Z,70.50
2019-03-17T00:32:01.912Z,70.30
2019-03-17T00:34:43.232Z,69.60
2019-03-17T00:37:02.827Z,69.50
2019-03-17T00:39:32.891Z,69.40
2019-03-17T00:42:02.943Z,69.50
2019-03-17T00:44:33.344Z,70.10
2019-03-17T00:47:02.880Z,69.50
2019-03-17T00:49:32.432Z,69.80
2019-03-17T00:52:02.002Z,70.30
2019-03-17T00:54:31.554Z,70.20
2019-03-17T00:57:00.950Z,70.60
2019-03-17T00:59:30.211Z,70.00
2019-03-17T01:01:59.604Z,69.30
2019-03-17T01:04:29.162Z,69.90
2019-03-17T01:06:59.306Z,68.60
2019-03-17T01:09:28.846Z,67.80
2019-03-17T01:11:58.493Z,67.40
2019-03-17T01:14:28.679Z,64.20
2019-03-17T01:16:58.051Z,64.10
2019-03-17T01:19:27.580Z,62.90
2019-03-17T01:21:56.921Z,62.00
2019-03-17T01:24:26.263Z,61.80
2019-03-17T01:26:55.568Z,61.80
2019-03-17T01:29:25.304Z,61.20
2019-03-17T01:31:54.715Z,60.20
2019-03-17T01:34:24.292Z,60.00
2019-03-17T01:36:53.854Z,59.90
2019-03-17T01:39:23.223Z,59.20
2019-03-17T01:41:52.902Z,59.30
2019-03-17T01:44:22.472Z,59.70
2019-03-17T01:46:52.016Z,60.20
2019-03-17T01:49:21.401Z,60.50
2019-03-17T01:51:50.668Z,61.20
2019-03-17T01:54:19.962Z,61.90
2019-03-17T01:56:49.248Z,61.40
2019-03-17T01:59:18.621Z,61.30
2019-03-17T02:01:48.241Z,61.20
2019-03-17T02:04:17.945Z,61.20
2019-03-17T02:06:47.218Z,61.00
2019-03-17T02:09:16.789Z,61.20
2019-03-17T02:11:46.134Z,61.30
2019-03-17T02:14:15.445Z,60.80
2019-03-17T02:16:44.707Z,60.30
2019-03-17T02:19:14.688Z,60.80
2019-03-17T02:21:43.965Z,60.30
2019-03-17T02:24:13.537Z,60.20
2019-03-17T02:26:43.379Z,60.50
2019-03-17T02:29:13.216Z,59.60
2019-03-17T02:31:42.499Z,60.30
2019-03-17T02:34:12.387Z,59.70
2019-03-17T02:36:41.681Z,59.50
2019-03-17T02:39:10.967Z,60.30
2019-03-17T02:41:40.319Z,60.60
2019-03-17T02:44:10.174Z,60.50
2019-03-17T02:46:39.498Z,60.60
2019-03-17T02:49:08.916Z,60.60
2019-03-17T02:51:38.176Z,60.80
2019-03-17T02:54:07.757Z,60.60
2019-03-17T02:56:37.066Z,60.70
2019-03-17T02:59:06.374Z,60.00
2019-03-17T03:01:36.283Z,60.30
2019-03-17T03:04:05.655Z,60.50
2019-03-17T03:06:35.290Z,60.30
2019-03-17T03:09:06.472Z,60.40
2019-03-17T03:11:36.103Z,59.90
2019-03-17T03:14:05.486Z,59.90
2019-03-17T03:16:34.766Z,59.80
2019-03-17T03:19:04.124Z,59.30
2019-03-17T03:21:33.974Z,58.70
2019-03-17T03:24:03.606Z,57.80
2019-03-17T03:26:32.893Z,57.60
2019-03-17T03:29:02.194Z,57.00
2019-03-17T03:31:32.165Z,57.10
2019-03-17T03:34:01.474Z,56.50
2019-03-17T03:36:31.071Z,56.10
2019-03-17T03:39:00.368Z,55.60
2019-03-17T03:41:29.647Z,55.60
2019-03-17T03:43:59.423Z,55.50
2019-03-17T03:46:28.651Z,55.70
2019-03-17T03:48:58.051Z,55.40
2019-03-17T03:51:28.538Z,55.90
2019-03-17T03:53:57.884Z,56.00
2019-03-17T03:56:27.792Z,56.30
2019-03-17T03:58:57.182Z,55.50
2019-03-17T04:01:26.827Z,55.90
2019-03-17T04:03:56.480Z,56.00
2019-03-17T04:06:27.156Z,56.00
2019-03-17T04:08:56.628Z,56.80
2019-03-17T04:11:28.754Z,57.30
2019-03-17T04:13:58.041Z,57.20
2019-03-17T04:16:27.755Z,57.40
2019-03-17T04:18:57.636Z,57.10
2019-03-17T04:21:26.933Z,57.30
2019-03-17T04:23:56.270Z,57.00
2019-03-17T04:26:25.569Z,57.20
2019-03-17T04:28:54.829Z,57.00
2019-03-17T04:31:24.146Z,56.50
2019-03-17T04:33:53.491Z,56.00
2019-03-17T04:36:22.852Z,57.10
2019-03-17T04:38:52.121Z,55.90
2019-03-17T04:41:21.415Z,55.60
2019-03-17T04:43:50.697Z,55.90
2019-03-17T04:46:20.281Z,55.60
2019-03-17T04:48:49.912Z,55.00
2019-03-17T04:51:19.282Z,55.30
2019-03-17T04:53:49.166Z,53.90
2019-03-17T04:56:18.457Z,53.40
2019-03-17T04:58:47.813Z,52.90
2019-03-17T05:01:17.141Z,52.90
2019-03-17T05:03:46.405Z,52.80
2019-03-17T05:06:15.710Z,52.90
2019-03-17T05:08:44.982Z,53.30
2019-03-17T05:11:14.609Z,52.50
2019-03-17T05:13:44.501Z,52.00
2019-03-17T05:16:13.796Z,51.90
2019-03-17T05:18:43.082Z,49.70
2019-03-17T05:21:12.458Z,49.90
2019-03-17T05:23:42.024Z,49.80
2019-03-17T05:26:11.663Z,49.80
2019-03-17T05:28:40.855Z,49.70
2019-03-17T05:31:10.163Z,48.90
2019-03-17T05:33:39.517Z,48.40
2019-03-17T05:36:08.899Z,48.30
2019-03-17T05:38:38.231Z,48.70
2019-03-17T05:41:07.601Z,49.50
2019-03-17T05:43:36.877Z,49.60
2019-03-17T05:46:06.173Z,49.60
2019-03-17T05:48:35.530Z,49.60
2019-03-17T05:51:05.163Z,49.40
2019-03-17T05:53:34.426Z,49.50
2019-03-17T05:56:03.791Z,49.30
2019-03-17T05:58:33.124Z,49.00
2019-03-17T06:01:02.505Z,49.60
2019-03-17T06:03:32.115Z,49.60
2019-03-17T06:06:01.818Z,49.60
2019-03-17T06:08:33.593Z,49.60
2019-03-17T06:11:02.372Z,49.70
2019-03-17T06:13:32.016Z,49.60
2019-03-17T06:16:01.673Z,49.70
2019-03-17T06:18:31.015Z,49.70
2019-03-17T06:21:00.632Z,49.70
2019-03-17T06:23:30.544Z,49.70
2019-03-17T06:26:00.176Z,49.80
2019-03-17T06:28:29.771Z,49.80
2019-03-17T06:30:59.395Z,48.80
2019-03-17T06:33:29.014Z,48.60
2019-03-17T06:35:58.550Z,48.20
2019-03-17T06:38:28.190Z,48.50
2019-03-17T06:40:57.551Z,48.00
2019-03-17T06:43:27.262Z,48.00
2019-03-17T06:45:56.591Z,48.10
2019-03-17T06:48:25.963Z,48.10
2019-03-17T06:50:55.528Z,47.90
2019-03-17T06:53:24.879Z,49.00
2019-03-17T06:55:54.490Z,49.10
2019-03-17T06:58:24.130Z,47.60
2019-03-17T07:00:53.482Z,47.70
2019-03-17T07:03:22.864Z,46.50
2019-03-17T07:05:52.137Z,46.90
2019-03-17T07:08:21.517Z,47.20
2019-03-17T07:10:51.412Z,47.00
2019-03-17T07:13:20.991Z,47.30
2019-03-17T07:15:50.428Z,46.50
2019-03-17T07:18:19.791Z,46.30
2019-03-17T07:20:49.062Z,46.60
2019-03-17T07:23:18.643Z,46.80
2019-03-17T07:25:47.904Z,46.60
2019-03-17T07:28:17.822Z,46.20
2019-03-17T07:30:47.377Z,46.20
2019-03-17T07:33:16.756Z,46.10
2019-03-17T07:35:46.458Z,45.60
2019-03-17T07:38:15.838Z,45.90
2019-03-17T07:40:45.186Z,45.90
2019-03-17T07:43:14.779Z,45.40
2019-03-17T07:45:44.393Z,45.20
2019-03-17T07:48:13.954Z,45.30
2019-03-17T07:50:43.505Z,44.60
2019-03-17T07:53:13.147Z,45.20
2019-03-17T07:55:42.429Z,44.30
2019-03-17T07:58:11.701Z,44.10
2019-03-17T08:00:41.244Z,43.70
2019-03-17T08:03:11.098Z,43.80
2019-03-17T08:05:40.359Z,43.60
2019-03-17T08:08:10.041Z,43.10
2019-03-17T08:10:39.339Z,42.20
2019-03-17T08:13:08.620Z,41.70
2019-03-17T08:15:37.922Z,41.90
2019-03-17T08:18:07.233Z,42.00
2019-03-17T08:20:36.499Z,42.20
2019-03-17T08:23:05.813Z,41.90
2019-03-17T08:25:35.079Z,42.10
2019-03-17T08:28:04.459Z,41.60
2019-03-17T08:30:33.738Z,41.60
2019-03-17T08:33:03.045Z,41.90
2019-03-17T08:35:32.918Z,42.50
2019-03-17T08:38:02.468Z,40.70
2019-03-17T08:40:32.286Z,40.90
2019-03-17T08:43:01.567Z,41.60
2019-03-17T08:45:31.123Z,42.70
2019-03-17T08:48:00.767Z,42.00
2019-03-17T08:50:30.031Z,41.90
2019-03-17T08:52:59.430Z,40.40
2019-03-17T08:55:28.964Z,40.20
2019-03-17T08:57:58.677Z,39.30
2019-03-17T09:00:28.089Z,38.10
2019-03-17T09:02:57.657Z,38.60
2019-03-17T09:05:27.006Z,38.20
2019-03-17T09:07:56.291Z,37.80
2019-03-17T09:10:25.659Z,37.60
2019-03-17T09:12:54.996Z,39.20
2019-03-17T09:15:24.696Z,39.80
2019-03-17T09:17:54.347Z,41.00
2019-03-17T09:20:23.719Z,41.80
2019-03-17T09:22:53.330Z,40.60
2019-03-17T09:25:22.857Z,40.80
2019-03-17T09:27:52.125Z,40.40
2019-03-17T09:30:21.503Z,39.50
2019-03-17T09:32:50.852Z,41.20
2019-03-17T09:35:20.492Z,40.10
2019-03-17T09:37:49.757Z,39.70
2019-03-17T09:40:19.141Z,39.10
2019-03-17T09:42:48.863Z,39.10
2019-03-17T09:45:18.162Z,40.10
2019-03-17T09:47:48.069Z,40.10
2019-03-17T09:50:17.495Z,39.60
2019-03-17T09:52:46.769Z,40.30
2019-03-17T09:55:16.353Z,38.40
2019-03-17T09:57:45.642Z,39.00
2019-03-17T10:00:14.937Z,39.00
2019-03-17T10:02:44.218Z,39.60
2019-03-17T10:05:13.573Z,40.40
2019-03-17T10:07:42.835Z,39.80
2019-03-17T10:10:12.997Z,39.70
2019-03-17T10:12:42.284Z,40.50
2019-03-17T10:15:12.606Z,40.80
2019-03-17T10:17:41.907Z,40.00
2019-03-17T10:20:13.606Z,39.90
2019-03-17T10:22:43.226Z,38.20
2019-03-17T10:25:12.812Z,36.30
2019-03-17T10:27:42.166Z,36.10
2019-03-17T10:30:12.648Z,36.20
2019-03-17T10:32:41.974Z,36.20
2019-03-17T10:35:11.345Z,36.20
2019-03-17T10:37:40.710Z,37.20
2019-03-17T10:40:12.413Z,36.20
2019-03-17T10:42:42.044Z,35.40
2019-03-17T10:45:11.755Z,36.10
2019-03-17T10:47:41.398Z,35.70
2019-03-17T10:50:12.991Z,35.70
2019-03-17T10:52:42.616Z,35.80
2019-03-17T10:55:12.854Z,35.00
2019-03-17T10:57:42.830Z,34.40
2019-03-17T11:00:14.047Z,35.00
2019-03-17T11:02:43.610Z,36.40
2019-03-17T11:05:12.946Z,37.00
2019-03-17T11:07:42.273Z,36.70
2019-03-17T11:10:11.710Z,37.20
2019-03-17T11:12:41.290Z,38.50
2019-03-17T11:15:12.295Z,38.70
2019-03-17T11:17:41.914Z,38.70
2019-03-17T11:20:11.675Z,38.70
2019-03-17T11:22:41.040Z,38.60
2019-03-17T11:25:10.850Z,39.50
2019-03-17T11:27:40.556Z,38.40
2019-03-17T11:30:10.841Z,38.40
2019-03-17T11:32:40.396Z,37.90
2019-03-17T11:35:09.965Z,38.20
2019-03-17T11:37:39.228Z,37.30
2019-03-17T11:40:09.964Z,37.10
2019-03-17T11:42:39.249Z,37.80
2019-03-17T11:45:10.426Z,39.00
2019-03-17T11:47:39.786Z,39.00
2019-03-17T11:50:09.998Z,39.80
2019-03-17T11:52:39.742Z,39.10
2019-03-17T11:55:09.600Z,39.00
2019-03-17T11:57:39.203Z,38.70
2019-03-17T12:00:10.605Z,39.50
2019-03-17T12:02:40.455Z,39.50
2019-03-17T12:05:10.148Z,40.10
2019-03-17T12:07:39.737Z,40.10
2019-03-17T12:10:10.846Z,40.10
2019-03-17T12:12:40.295Z,40.80
2019-03-17T12:15:11.672Z,40.50
2019-03-17T12:17:41.105Z,40.60
2019-03-17T12:20:12.049Z,41.20
2019-03-17T12:22:43.093Z,41.60
2019-03-17T12:25:13.704Z,42.50
2019-03-17T12:27:43.914Z,43.20
2019-03-17T12:30:20.096Z,44.70
2019-03-17T12:32:50.132Z,46.10
2019-03-17T12:35:20.059Z,47.60
2019-03-17T12:37:49.726Z,49.50
2019-03-17T12:40:19.139Z,51.10
2019-03-17T12:42:48.578Z,52.50
2019-03-17T12:45:17.984Z,53.40
2019-03-17T12:47:47.732Z,53.70
2019-03-17T12:50:17.298Z,54.50
2019-03-17T12:52:46.737Z,55.10
2019-03-17T12:55:16.134Z,55.40
2019-03-17T12:57:45.569Z,55.40
2019-03-17T13:00:15.920Z,55.50
2019-03-17T13:02:45.666Z,55.60
2019-03-17T13:05:15.376Z,56.50
2019-03-17T13:07:45.362Z,57.00
2019-03-17T13:10:16.409Z,57.90
2019-03-17T13:12:46.192Z,59.10
2019-03-17T13:15:16.090Z,60.00
2019-03-17T13:17:45.856Z,60.50
2019-03-17T13:20:15.934Z,61.10
2019-03-17T13:22:45.431Z,68.70
2019-03-17T13:25:14.760Z,72.60
2019-03-17T13:27:44.260Z,75.90
2019-03-17T13:30:13.898Z,76.80
2019-03-17T13:32:43.374Z,78.40
2019-03-17T13:35:12.875Z,81.70
2019-03-17T13:37:42.328Z,84.10
2019-03-17T13:40:12.378Z,89.10
2019-03-17T13:42:41.810Z,91.30
2019-03-17T13:45:11.807Z,92.40
2019-03-17T13:47:41.230Z,93.40
2019-03-17T13:50:12.950Z,95.00
2019-03-17T13:52:42.370Z,96.30
2019-03-17T13:55:11.775Z,98.10
2019-03-17T13:57:41.813Z,96.90
2019-03-17T14:00:13.635Z,97.10
2019-03-17T14:02:43.356Z,96.10
2019-03-17T14:05:12.888Z,96.70
2019-03-17T14:07:42.365Z,98.10
2019-03-17T14:10:14.755Z,98.20
2019-03-17T14:12:44.248Z,96.20
2019-03-17T14:15:14.199Z,96.80
2019-03-17T14:17:44.500Z,95.30
2019-03-17T14:20:15.698Z,95.90
2019-03-17T14:22:45.485Z,97.30
2019-03-17T14:25:20.822Z,96.70
2019-03-17T14:27:50.545Z,96.10
2019-03-17T14:30:20.285Z,96.00
2019-03-17T14:32:50.306Z,96.80
2019-03-17T14:35:21.483Z,95.70
2019-03-17T14:37:51.090Z,95.80
2019-03-17T14:40:20.517Z,94.20
2019-03-17T14:42:50.107Z,94.30
2019-03-17T14:45:19.833Z,95.10
2019-03-17T14:47:49.249Z,94.60
2019-03-17T14:50:18.900Z,95.30
2019-03-17T14:52:48.645Z,94.30
2019-03-17T14:55:18.145Z,94.20
2019-03-17T14:57:47.626Z,94.50
2019-03-17T15:00:17.987Z,94.70
2019-03-17T15:02:47.774Z,94.00
2019-03-17T15:05:17.383Z,94.20
2019-03-17T15:07:47.143Z,94.80
2019-03-17T15:10:17.523Z,94.20
2019-03-17T15:12:47.261Z,94.10
2019-03-17T15:15:17.883Z,93.80
2019-03-17T15:17:48.160Z,93.40
2019-03-17T15:20:18.277Z,93.20
2019-03-17T15:22:47.703Z,93.20
2019-03-17T15:25:17.127Z,92.30
2019-03-17T15:27:46.545Z,92.30
2019-03-17T15:30:17.985Z,91.40
2019-03-17T15:32:47.679Z,91.20
2019-03-17T15:35:17.105Z,91.20
2019-03-17T15:37:46.522Z,90.40
2019-03-17T15:40:15.988Z,91.10
2019-03-17T15:42:46.041Z,90.60
2019-03-17T15:45:15.899Z,90.20
2019-03-17T15:47:45.369Z,89.50
2019-03-17T15:50:15.914Z,88.00
2019-03-17T15:52:45.699Z,88.40
2019-03-17T15:55:15.162Z,89.90
2019-03-17T15:57:44.674Z,89.10
2019-03-17T16:00:25.126Z,87.70
2019-03-17T16:02:48.559Z,87.70
2019-03-17T16:05:18.036Z,86.30
2019-03-17T16:07:47.803Z,87.70
2019-03-17T16:10:18.235Z,87.30
2019-03-17T16:12:47.634Z,86.30
2019-03-17T16:15:17.099Z,87.80
2019-03-17T16:17:46.506Z,86.90
2019-03-17T16:20:17.434Z,86.80
2019-03-17T16:22:47.176Z,87.20
2019-03-17T16:25:17.436Z,86.70
2019-03-17T16:27:47.155Z,86.00
2019-03-17T16:30:20.835Z,86.10
2019-03-17T16:32:50.337Z,85.60
2019-03-17T16:35:19.854Z,85.00
2019-03-17T16:37:49.545Z,84.40
2019-03-17T16:40:20.621Z,85.40
2019-03-17T16:42:50.331Z,82.60
2019-03-17T16:45:21.873Z,83.20
2019-03-17T16:47:51.551Z,83.90
2019-03-17T16:50:21.457Z,83.20
2019-03-17T16:52:51.425Z,83.10
2019-03-17T16:55:21.120Z,84.00
2019-03-17T16:57:50.569Z,83.00
2019-03-17T17:00:20.048Z,84.50
2019-03-17T17:02:49.464Z,85.90
2019-03-17T17:05:18.890Z,86.60
2019-03-17T17:07:48.392Z,85.80
2019-03-17T17:10:18.738Z,87.60
2019-03-17T17:12:48.237Z,87.60
2019-03-17T17:15:19.538Z,88.80
2019-03-17T17:17:48.933Z,90.20
2019-03-17T17:20:20.503Z,90.50
2019-03-17T17:22:49.904Z,91.30
2019-03-17T17:25:19.651Z,92.20
2019-03-17T17:27:49.062Z,93.10
2019-03-17T17:30:18.818Z,93.40
2019-03-17T17:32:48.221Z,94.10
2019-03-17T17:35:17.933Z,94.70
2019-03-17T17:37:47.385Z,94.90
2019-03-17T17:40:17.467Z,95.40
2019-03-17T17:42:46.877Z,95.30
2019-03-17T17:45:17.004Z,95.00
2019-03-17T17:47:46.400Z,95.00
2019-03-17T17:50:16.701Z,95.20
2019-03-17T17:52:46.103Z,95.00
2019-03-17T17:55:15.794Z,94.90
2019-03-17T17:57:45.465Z,95.40
2019-03-17T18:00:17.829Z,94.30
2019-03-17T18:02:47.266Z,94.90
2019-03-17T18:05:17.314Z,94.30
2019-03-17T18:07:46.998Z,94.40
2019-03-17T18:10:16.419Z,95.00
2019-03-17T18:12:45.919Z,94.40
2019-03-17T18:15:16.938Z,94.50
2019-03-17T18:17:46.988Z,94.10
2019-03-17T18:20:16.410Z,93.10
2019-03-17T18:22:45.839Z,93.30
2019-03-17T18:25:15.578Z,92.60
2019-03-17T18:27:45.033Z,92.00
2019-03-17T18:30:15.922Z,91.00
2019-03-17T18:32:45.359Z,91.20
2019-03-17T18:35:15.066Z,90.80
2019-03-17T18:37:44.618Z,91.40
2019-03-17T18:40:14.737Z,90.90
2019-03-17T18:42:44.267Z,90.30
2019-03-17T18:45:15.530Z,90.90
2019-03-17T18:47:44.965Z,90.10
2019-03-17T18:50:20.279Z,90.70
2019-03-17T18:52:45.969Z,90.10
2019-03-17T18:55:15.377Z,90.00
2019-03-17T18:57:44.791Z,89.70
2019-03-17T19:00:17.720Z,89.60
2019-03-17T19:02:47.149Z,89.80
2019-03-17T19:05:19.605Z,86.90
2019-03-17T19:07:47.614Z,87.00
2019-03-17T19:10:17.145Z,87.30
2019-03-17T19:12:46.662Z,86.80
2019-03-17T19:15:16.140Z,86.20
2019-03-17T19:17:45.582Z,86.50
2019-03-17T19:20:15.457Z,86.10
2019-03-17T19:22:44.889Z,84.80
2019-03-17T19:25:15.012Z,84.30
2019-03-17T19:27:45.079Z,83.80
2019-03-17T19:30:15.847Z,83.00
2019-03-17T19:32:45.453Z,81.90
2019-03-17T19:35:15.446Z,79.80
2019-03-17T19:37:45.271Z,80.30
2019-03-17T19:40:15.259Z,81.20
2019-03-17T19:42:57.401Z,81.50
2019-03-17T19:45:16.294Z,81.10
2019-03-17T19:47:45.735Z,81.20
2019-03-17T19:50:15.249Z,80.30
2019-03-17T19:52:44.852Z,81.90
2019-03-17T19:55:14.864Z,81.20
2019-03-17T19:57:44.552Z,80.70
2019-03-17T20:00:15.507Z,80.50
2019-03-17T20:02:47.542Z,80.70
2019-03-17T20:05:15.994Z,80.80
2019-03-17T20:07:46.500Z,81.30
2019-03-17T20:10:18.486Z,81.50
2019-03-17T20:12:48.159Z,82.20
2019-03-17T20:15:17.888Z,82.10
2019-03-17T20:17:47.319Z,82.60
2019-03-17T20:20:16.712Z,82.40
2019-03-17T20:22:46.506Z,81.90
2019-03-17T20:25:15.927Z,81.30
2019-03-17T20:27:45.613Z,82.10
2019-03-17T20:30:15.390Z,82.80
2019-03-17T20:32:44.813Z,82.70
2019-03-17T20:35:14.625Z,82.80
2019-03-17T20:37:44.296Z,82.60
2019-03-17T20:40:13.975Z,83.30
2019-03-17T20:42:43.388Z,82.90
2019-03-17T20:45:13.632Z,83.20
2019-03-17T20:47:43.038Z,82.70
2019-03-17T20:50:12.520Z,82.80
2019-03-17T20:52:42.518Z,83.00
2019-03-17T20:55:12.417Z,82.90
2019-03-17T20:57:42.473Z,81.90
2019-03-17T21:00:13.738Z,82.60
2019-03-17T21:02:43.388Z,82.00
2019-03-17T21:05:13.277Z,82.40
2019-03-17T21:07:43.005Z,81.40
2019-03-17T21:10:12.486Z,78.70
2019-03-17T21:12:42.209Z,78.60
2019-03-17T21:15:12.461Z,78.60
2019-03-17T21:17:41.888Z,78.50
2019-03-17T21:20:13.132Z,78.50
2019-03-17T21:22:42.567Z,78.40
2019-03-17T21:25:12.052Z,79.00
2019-03-17T21:27:41.481Z,78.50
2019-03-17T21:30:13.729Z,78.30
2019-03-17T21:32:43.257Z,79.30
2019-03-17T21:35:12.694Z,78.90
2019-03-17T21:37:42.088Z,78.70
2019-03-17T21:40:11.916Z,79.00
2019-03-17T21:42:41.306Z,80.20
2019-03-17T21:45:10.762Z,80.60
2019-03-17T21:47:40.181Z,80.30
2019-03-17T21:50:11.681Z,80.20
2019-03-17T21:52:41.344Z,80.50
2019-03-17T21:55:10.808Z,80.50
2019-03-17T21:57:40.201Z,80.90
2019-03-17T22:00:12.135Z,81.30
2019-03-17T22:02:41.521Z,81.00
2019-03-17T22:05:12.488Z,80.80
2019-03-17T22:07:49.314Z,81.20
2019-03-17T22:10:13.521Z,81.70
2019-03-17T22:12:43.179Z,81.90
2019-03-17T22:15:12.787Z,82.90
2019-03-17T22:17:42.483Z,82.90
2019-03-17T22:20:11.905Z,82.30
2019-03-17T22:22:41.581Z,82.10
2019-03-17T22:25:11.017Z,82.60
2019-03-17T22:27:40.422Z,82.60
2019-03-17T22:30:11.450Z,82.90
2019-03-17T22:32:41.143Z,83.40
2019-03-17T22:35:10.920Z,83.80
2019-03-17T22:37:40.621Z,83.00
2019-03-17T22:40:11.783Z,82.90
2019-03-17T22:42:41.185Z,82.70
2019-03-17T22:45:10.928Z,83.20
2019-03-17T22:47:40.662Z,83.60
2019-03-17T22:50:10.566Z,84.00
2019-03-17T22:52:40.254Z,83.80
2019-03-17T22:55:09.916Z,83.60
2019-03-17T22:57:39.632Z,82.90
2019-03-17T23:00:12.261Z,83.30
2019-03-17T23:02:41.694Z,82.90
2019-03-17T23:05:11.628Z,82.60
2019-03-17T23:07:41.314Z,82.80
2019-03-17T23:10:11.026Z,83.70
2019-03-17T23:12:40.741Z,83.20
2019-03-17T23:15:10.746Z,83.10
2019-03-17T23:17:41.001Z,81.80
2019-03-17T23:20:11.768Z,82.00
2019-03-17T23:22:41.700Z,82.10
2019-03-17T23:25:11.224Z,82.10
2019-03-17T23:27:41.050Z,82.10
2019-03-17T23:30:11.065Z,82.20
2019-03-17T23:32:41.096Z,81.70
2019-03-17T23:35:10.814Z,82.30
2019-03-17T23:37:40.504Z,82.50
2019-03-17T23:40:10.021Z,81.90
2019-03-17T23:42:39.753Z,81.40
2019-03-17T23:45:09.880Z,81.30
2019-03-17T23:47:39.291Z,81.50
2019-03-17T23:50:08.877Z,81.90
2019-03-17T23:52:38.922Z,83.10
2019-03-17T23:55:10.033Z,82.80
2019-03-17T23:57:39.711Z,83.70
